createdAt,value
2018-04-13T00:00:07.987Z,84.64
2018-04-13T00:02:36.179Z,84.60
2018-04-13T00:05:06.057Z,84.41
2018-04-13T00:07:34.070Z,85.00
2018-04-13T00:10:05.507Z,85.49
2018-04-13T00:12:34.078Z,85.07
2018-04-13T00:15:05.994Z,85.17
2018-04-13T00:17:34.069Z,84.77
2018-04-13T00:20:05.588Z,84.57
2018-04-13T00:22:33.881Z,84.66
2018-04-13T00:25:09.162Z,84.71
2018-04-13T00:27:37.232Z,85.07
2018-04-13T00:30:05.971Z,85.37
2018-04-13T00:32:34.253Z,86.26
2018-04-13T00:35:09.018Z,85.96
2018-04-13T00:37:37.042Z,86.05
2018-04-13T00:40:05.967Z,85.71
2018-04-13T00:42:34.459Z,85.49
2018-04-13T00:45:06.312Z,84.96
2018-04-13T00:47:34.328Z,85.44
2018-04-13T00:50:09.770Z,85.68
2018-04-13T00:52:38.095Z,85.77
2018-04-13T00:55:06.104Z,86.12
2018-04-13T00:57:34.140Z,86.49
2018-04-13T01:00:05.385Z,86.47
2018-04-13T01:02:33.417Z,86.49
2018-04-13T01:05:07.815Z,86.08
2018-04-13T01:07:35.843Z,85.99
2018-04-13T01:10:05.744Z,86.29
2018-04-13T01:12:33.771Z,86.32
2018-04-13T01:15:05.011Z,86.36
2018-04-13T01:17:33.142Z,86.40
2018-04-13T01:20:04.399Z,86.53
2018-04-13T01:22:32.416Z,86.26
2018-04-13T01:27:33.222Z,85.97
2018-04-13T01:30:07.567Z,86.55
2018-04-13T01:32:35.752Z,87.05
2018-04-13T01:35:07.118Z,87.67
2018-04-13T01:37:35.132Z,87.86
2018-04-13T01:40:06.764Z,87.95
2018-04-13T01:42:34.787Z,88.03
2018-04-13T01:45:05.831Z,87.75
2018-04-13T01:47:33.829Z,87.87
2018-04-13T01:50:05.300Z,88.16
2018-04-13T01:52:33.307Z,88.08
2018-04-13T01:55:07.802Z,88.50
2018-04-13T01:57:35.899Z,88.25
2018-04-13T02:00:05.643Z,88.34
2018-04-13T02:02:33.642Z,88.08
2018-04-13T02:05:07.995Z,88.42
2018-04-13T02:07:36.025Z,88.53
2018-04-13T02:10:07.323Z,88.73
2018-04-13T02:12:35.337Z,88.65
2018-04-13T02:15:07.401Z,88.77
2018-04-13T02:17:35.409Z,88.35
2018-04-13T02:20:07.242Z,88.02
2018-04-13T02:22:35.265Z,87.95
2018-04-13T02:25:06.718Z,87.78
2018-04-13T02:27:34.742Z,88.21
2018-04-13T02:30:07.010Z,88.27
2018-04-13T02:32:35.359Z,88.57
2018-04-13T02:35:06.796Z,87.95
2018-04-13T02:37:34.819Z,88.02
2018-04-13T02:40:06.011Z,87.68
2018-04-13T02:42:34.041Z,87.93
2018-04-13T02:45:08.227Z,87.47
2018-04-13T02:47:36.257Z,87.51
2018-04-13T02:50:05.735Z,87.23
2018-04-13T02:52:33.755Z,87.18
2018-04-13T02:55:04.951Z,87.21
2018-04-13T02:57:33.059Z,87.99
2018-04-13T03:02:33.592Z,87.93
2018-04-13T03:05:05.919Z,87.91
2018-04-13T03:07:34.000Z,88.15
2018-04-13T03:10:08.639Z,87.82
2018-04-13T03:12:36.673Z,87.96
2018-04-13T03:15:06.100Z,88.09
2018-04-13T03:17:34.141Z,88.16
2018-04-13T03:20:05.159Z,88.27
2018-04-13T03:22:34.224Z,88.52
2018-04-13T03:25:05.424Z,88.42
2018-04-13T03:27:33.471Z,88.12
2018-04-13T03:30:04.548Z,87.84
2018-04-13T03:32:32.621Z,87.84
2018-04-13T03:35:05.544Z,87.82
2018-04-13T03:37:33.543Z,88.55
2018-04-13T03:40:07.907Z,88.32
2018-04-13T03:42:35.926Z,88.69
2018-04-13T03:45:08.153Z,88.86
2018-04-13T03:47:36.179Z,88.94
2018-04-13T03:50:05.779Z,89.40
2018-04-13T03:52:33.798Z,89.09
2018-04-13T03:55:07.480Z,88.72
2018-04-13T03:57:35.482Z,89.04
2018-04-13T04:00:06.064Z,88.46
2018-04-13T04:02:34.073Z,88.16
2018-04-13T04:05:09.111Z,87.97
2018-04-13T04:07:37.095Z,87.94
2018-04-13T04:10:05.976Z,88.11
2018-04-13T04:12:34.366Z,88.18
2018-04-13T04:15:09.380Z,87.89
2018-04-13T04:17:37.377Z,88.12
2018-04-13T04:20:17.766Z,88.69
2018-04-13T04:22:58.304Z,88.46
2018-04-13T04:25:32.075Z,88.43
2018-04-13T04:28:00.091Z,88.37
2018-04-13T04:30:28.111Z,88.16
2018-04-13T04:32:56.122Z,88.44
2018-04-13T04:35:24.134Z,88.20
2018-04-13T04:37:52.146Z,87.53
2018-04-13T04:40:20.188Z,87.82
2018-04-13T04:42:48.195Z,87.78
2018-04-13T04:45:16.220Z,87.72
2018-04-13T04:47:44.265Z,87.73
2018-04-13T04:50:12.259Z,87.79
2018-04-13T04:52:40.282Z,87.88
2018-04-13T04:55:08.367Z,88.34
2018-04-13T04:57:37.186Z,88.41
2018-04-13T05:00:05.883Z,88.79
2018-04-13T05:02:33.918Z,88.60
2018-04-13T05:05:07.386Z,88.76
2018-04-13T05:07:35.695Z,88.96
2018-04-13T05:10:07.752Z,89.09
2018-04-13T05:12:36.306Z,88.71
2018-04-13T05:15:05.831Z,88.49
2018-04-13T05:17:33.860Z,88.68
2018-04-13T05:20:08.464Z,88.81
2018-04-13T05:22:36.479Z,88.74
2018-04-13T05:25:06.302Z,88.67
2018-04-13T05:27:34.361Z,88.45
2018-04-13T05:30:05.631Z,88.79
2018-04-13T05:32:33.643Z,88.62
2018-04-13T05:35:08.075Z,88.72
2018-04-13T05:37:36.059Z,88.69
2018-04-13T05:40:07.506Z,88.45
2018-04-13T05:42:35.538Z,88.30
2018-04-13T05:45:06.659Z,88.29
2018-04-13T05:47:34.663Z,88.34
2018-04-13T05:50:05.726Z,88.24
2018-04-13T05:52:33.727Z,88.52
2018-04-13T05:55:08.687Z,88.19
2018-04-13T05:57:36.768Z,87.85
2018-04-13T06:00:06.971Z,88.20
2018-04-13T06:02:35.146Z,88.10
2018-04-13T06:05:05.949Z,88.06
2018-04-13T06:07:34.037Z,88.71
2018-04-13T06:10:06.999Z,87.71
2018-04-13T06:12:35.004Z,87.68
2018-04-13T06:15:06.113Z,87.08
2018-04-13T06:17:34.110Z,87.54
2018-04-13T06:20:05.602Z,87.35
2018-04-13T06:22:33.837Z,86.54
2018-04-13T06:25:08.096Z,85.97
2018-04-13T06:27:36.135Z,86.25
2018-04-13T06:30:07.546Z,86.76
2018-04-13T06:32:35.558Z,87.20
2018-04-13T06:35:07.307Z,87.32
2018-04-13T06:37:35.881Z,86.41
2018-04-13T06:40:07.345Z,85.08
2018-04-13T06:42:35.531Z,84.50
2018-04-13T06:45:07.490Z,85.85
2018-04-13T06:47:35.907Z,85.51
2018-04-13T06:50:05.972Z,84.14
2018-04-13T06:52:34.015Z,83.49
2018-04-13T06:55:05.210Z,81.72
2018-04-13T06:57:33.989Z,81.85
2018-04-13T07:00:05.759Z,82.48
2018-04-13T07:02:33.800Z,83.21
2018-04-13T07:05:05.797Z,82.60
2018-04-13T07:07:33.819Z,82.96
2018-04-13T07:10:08.532Z,83.24
2018-04-13T07:12:36.565Z,83.87
2018-04-13T07:15:07.916Z,83.87
2018-04-13T07:17:35.935Z,83.19
2018-04-13T07:20:08.290Z,83.13
2018-04-13T07:22:36.307Z,83.11
2018-04-13T07:25:09.023Z,82.41
2018-04-13T07:27:37.068Z,81.95
2018-04-13T07:30:06.138Z,81.86
2018-04-13T07:32:34.147Z,82.35
2018-04-13T07:35:05.478Z,81.85
2018-04-13T07:37:33.620Z,80.87
2018-04-13T07:40:07.988Z,79.84
2018-04-13T07:42:36.010Z,79.63
2018-04-13T07:45:07.670Z,80.39
2018-04-13T07:47:35.553Z,81.46
2018-04-13T07:50:07.314Z,81.83
2018-04-13T07:52:35.113Z,82.01
2018-04-13T07:55:06.019Z,81.46
2018-04-13T07:57:34.036Z,80.14
2018-04-13T08:00:08.927Z,79.23
2018-04-13T08:02:36.942Z,79.51
2018-04-13T08:05:06.429Z,79.24
2018-04-13T08:07:34.428Z,79.88
2018-04-13T08:10:05.436Z,79.38
2018-04-13T08:12:33.517Z,78.81
2018-04-13T08:15:04.923Z,79.01
2018-04-13T08:17:32.955Z,79.59
2018-04-13T08:20:05.883Z,76.50
2018-04-13T08:22:33.870Z,76.08
2018-04-13T08:25:07.599Z,74.97
2018-04-13T08:27:36.183Z,74.49
2018-04-13T08:30:07.286Z,76.07
2018-04-13T08:32:35.460Z,77.23
2018-04-13T08:35:06.076Z,78.74
2018-04-13T08:37:34.099Z,80.07
2018-04-13T08:40:05.339Z,78.93
2018-04-13T08:42:33.377Z,77.08
2018-04-13T08:45:04.451Z,79.18
2018-04-13T08:47:32.527Z,78.86
2018-04-13T08:50:03.888Z,78.01
2018-04-13T08:52:31.916Z,77.15
2018-04-13T08:55:00.089Z,76.22
2018-04-13T08:57:32.176Z,75.97
2018-04-13T09:00:00.191Z,76.62
2018-04-13T09:02:33.895Z,75.71
2018-04-13T09:05:05.515Z,74.98
2018-04-13T09:07:33.542Z,73.94
2018-04-13T09:10:04.989Z,74.29
2018-04-13T09:12:33.014Z,74.02
2018-04-13T09:15:05.777Z,72.80
2018-04-13T09:17:34.226Z,72.60
2018-04-13T09:20:05.311Z,72.71
2018-04-13T09:22:33.355Z,73.71
2018-04-13T09:25:04.428Z,73.92
2018-04-13T09:27:32.748Z,74.13
2018-04-13T09:32:35.281Z,75.70
2018-04-13T09:35:06.824Z,74.44
2018-04-13T09:37:34.878Z,74.11
2018-04-13T09:40:05.974Z,73.47
2018-04-13T09:42:34.125Z,75.65
2018-04-13T09:45:08.539Z,75.50
2018-04-13T09:47:36.587Z,75.92
2018-04-13T09:50:07.627Z,78.27
2018-04-13T09:52:35.671Z,77.21
2018-04-13T09:55:07.523Z,76.86
2018-04-13T09:57:35.560Z,78.81
2018-04-13T10:00:06.926Z,78.16
2018-04-13T10:02:37.755Z,77.08
2018-04-13T10:05:12.432Z,76.57
2018-04-13T10:07:47.078Z,75.78
2018-04-13T10:10:15.100Z,75.47
2018-04-13T10:12:43.300Z,75.20
2018-04-13T10:15:11.367Z,74.88
2018-04-13T10:17:39.383Z,75.35
2018-04-13T10:20:08.245Z,75.42
2018-04-13T10:22:36.270Z,75.77
2018-04-13T10:25:07.652Z,76.59
2018-04-13T10:27:35.667Z,75.64
2018-04-13T10:30:07.124Z,77.55
2018-04-13T10:32:35.163Z,77.31
2018-04-13T10:35:06.389Z,76.39
2018-04-13T10:37:34.583Z,76.62
2018-04-13T10:40:07.241Z,75.89
2018-04-13T10:42:35.293Z,75.93
2018-04-13T10:45:06.452Z,74.54
2018-04-13T10:47:34.989Z,74.32
2018-04-13T10:50:08.669Z,74.24
2018-04-13T10:52:36.692Z,74.80
2018-04-13T10:55:06.576Z,73.84
2018-04-13T10:57:34.836Z,74.66
2018-04-13T11:00:09.892Z,73.67
2018-04-13T11:02:37.900Z,73.12
2018-04-13T11:05:06.547Z,74.74
2018-04-13T11:07:34.591Z,75.48
2018-04-13T11:10:09.235Z,73.70
2018-04-13T11:12:37.399Z,74.37
2018-04-13T11:15:06.833Z,74.33
2018-04-13T11:17:35.183Z,73.87
2018-04-13T11:20:07.085Z,72.99
2018-04-13T11:22:35.116Z,73.10
2018-04-13T11:25:06.247Z,71.47
2018-04-13T11:27:34.289Z,70.57
2018-04-13T11:30:05.475Z,69.85
2018-04-13T11:32:33.501Z,68.69
2018-04-13T11:35:04.597Z,70.17
2018-04-13T11:37:32.680Z,69.48
2018-04-13T11:40:00.718Z,70.37
2018-04-13T11:42:32.144Z,70.46
2018-04-13T11:45:00.171Z,70.15
2018-04-13T11:47:29.811Z,69.66
2018-04-13T11:49:57.841Z,69.41
2018-04-13T11:52:25.866Z,68.13
2018-04-13T11:54:53.916Z,66.52
2018-04-13T11:57:21.922Z,65.80
2018-04-13T11:59:49.960Z,66.71
2018-04-13T12:02:17.983Z,68.12
2018-04-13T12:04:46.024Z,64.97
2018-04-13T12:07:14.057Z,65.79
2018-04-13T12:09:42.388Z,64.61
2018-04-13T12:12:10.604Z,64.32
2018-04-13T12:14:39.203Z,62.63
2018-04-13T12:17:07.267Z,61.40
2018-04-13T12:19:35.299Z,60.93
2018-04-13T12:22:03.306Z,60.25
2018-04-13T12:24:31.338Z,63.38
2018-04-13T12:27:00.483Z,63.01
2018-04-13T12:29:28.536Z,62.47
2018-04-13T12:31:57.367Z,63.34
2018-04-13T12:34:25.396Z,62.91
2018-04-13T12:36:53.405Z,63.43
2018-04-13T12:39:21.419Z,63.09
2018-04-13T12:41:49.450Z,62.28
2018-04-13T12:44:17.443Z,61.79
2018-04-13T12:46:45.500Z,63.00
2018-04-13T12:49:14.712Z,63.41
2018-04-13T12:51:42.942Z,63.54
2018-04-13T12:54:11.006Z,63.21
2018-04-13T12:56:39.671Z,61.91
2018-04-13T12:59:07.631Z,61.06
2018-04-13T13:01:35.733Z,60.91
2018-04-13T13:04:04.048Z,62.76
2018-04-13T13:06:32.100Z,61.35
2018-04-13T13:09:00.507Z,60.62
2018-04-13T13:11:28.541Z,59.81
2018-04-13T13:13:56.583Z,61.19
2018-04-13T13:16:24.610Z,59.70
2018-04-13T13:18:52.627Z,59.15
2018-04-13T13:21:20.718Z,61.07
2018-04-13T13:23:48.739Z,60.37
2018-04-13T13:26:16.739Z,60.87
2018-04-13T13:28:44.772Z,59.60
2018-04-13T13:31:12.943Z,59.61
2018-04-13T13:33:40.984Z,60.40
2018-04-13T13:36:08.995Z,59.58
2018-04-13T13:38:37.050Z,59.09
2018-04-13T13:41:05.130Z,58.81
2018-04-13T13:43:33.355Z,59.57
2018-04-13T13:46:01.598Z,59.06
2018-04-13T13:48:29.627Z,59.07
2018-04-13T13:50:57.624Z,59.03
2018-04-13T13:53:25.667Z,58.99
2018-04-13T13:55:53.671Z,60.33
2018-04-13T13:58:21.720Z,59.84
2018-04-13T14:00:49.703Z,61.92
2018-04-13T14:03:17.747Z,61.32
2018-04-13T14:05:45.745Z,61.76
2018-04-13T14:08:13.984Z,60.67
2018-04-13T14:10:42.589Z,59.59
2018-04-13T14:13:10.619Z,59.88
2018-04-13T14:15:38.638Z,60.05
2018-04-13T14:18:07.132Z,60.13
2018-04-13T14:20:35.204Z,59.70
2018-04-13T14:23:03.200Z,59.81
2018-04-13T14:25:31.601Z,60.34
2018-04-13T14:27:59.775Z,60.19
2018-04-13T14:30:27.921Z,60.15
2018-04-13T14:32:55.851Z,60.32
2018-04-13T14:35:23.883Z,60.61
2018-04-13T14:37:52.448Z,60.06
2018-04-13T14:40:20.568Z,60.44
2018-04-13T14:42:48.537Z,61.04
2018-04-13T14:45:16.519Z,60.66
2018-04-13T14:47:44.588Z,60.88
2018-04-13T14:50:12.680Z,60.28
2018-04-13T14:52:40.631Z,60.84
2018-04-13T14:55:08.645Z,61.11
2018-04-13T14:57:37.054Z,60.85
2018-04-13T15:00:06.945Z,60.59
2018-04-13T15:02:35.013Z,60.84
2018-04-13T15:05:09.879Z,62.05
2018-04-13T15:07:37.925Z,61.86
2018-04-13T15:10:06.560Z,61.26
2018-04-13T15:12:34.640Z,63.26
2018-04-13T15:15:08.540Z,64.39
2018-04-13T15:17:36.561Z,64.59
2018-04-13T15:20:08.516Z,64.39
2018-04-13T15:22:36.847Z,64.38
2018-04-13T15:25:08.278Z,65.40
2018-04-13T15:27:36.284Z,64.74
2018-04-13T15:30:07.634Z,64.39
2018-04-13T15:32:35.679Z,63.93
2018-04-13T15:35:06.644Z,63.80
2018-04-13T15:37:35.271Z,63.73
2018-04-13T15:40:06.912Z,64.56
2018-04-13T15:42:35.495Z,64.52
2018-04-13T15:45:07.366Z,63.93
2018-04-13T15:47:35.399Z,63.58
2018-04-13T15:50:07.183Z,63.82
2018-04-13T15:52:35.191Z,63.34
2018-04-13T15:55:10.394Z,63.61
2018-04-13T15:57:38.383Z,64.16
2018-04-13T16:00:06.424Z,63.68
2018-04-13T16:02:34.474Z,63.91
2018-04-13T16:05:08.913Z,64.96
2018-04-13T16:07:36.916Z,65.03
2018-04-13T16:10:06.536Z,64.44
2018-04-13T16:12:34.534Z,64.00
2018-04-13T16:15:05.977Z,64.05
2018-04-13T16:17:33.999Z,64.39
2018-04-13T16:20:08.469Z,64.06
2018-04-13T16:22:36.748Z,64.23
2018-04-13T16:25:08.795Z,64.87
2018-04-13T16:27:36.835Z,64.30
2018-04-13T16:30:06.430Z,63.99
2018-04-13T16:32:34.446Z,63.69
2018-04-13T16:35:08.959Z,64.26
2018-04-13T16:37:37.082Z,64.29
2018-04-13T16:40:08.230Z,64.36
2018-04-13T16:42:36.274Z,65.11
2018-04-13T16:45:07.319Z,65.29
2018-04-13T16:47:35.339Z,65.76
2018-04-13T16:50:07.193Z,65.09
2018-04-13T16:52:36.317Z,64.82
2018-04-13T16:55:07.852Z,67.17
2018-04-13T16:57:36.465Z,65.57
2018-04-13T17:00:08.023Z,65.58
2018-04-13T17:02:36.075Z,66.67
2018-04-13T17:05:07.339Z,66.01
2018-04-13T17:07:35.364Z,66.51
2018-04-13T17:10:06.703Z,66.02
2018-04-13T17:12:34.727Z,66.34
2018-04-13T17:15:06.362Z,66.24
2018-04-13T17:17:34.400Z,65.89
2018-04-13T17:20:08.428Z,66.49
2018-04-13T17:22:36.451Z,66.62
2018-04-13T17:25:05.891Z,66.26
2018-04-13T17:27:33.906Z,66.81
2018-04-13T17:30:05.181Z,66.44
2018-04-13T17:32:33.215Z,66.78
2018-04-13T17:35:04.276Z,67.44
2018-04-13T17:37:32.655Z,68.55
2018-04-13T17:40:04.325Z,68.73
2018-04-13T17:42:32.346Z,68.94
2018-04-13T17:45:01.770Z,68.93
2018-04-13T17:47:31.385Z,69.82
2018-04-13T17:49:59.385Z,70.20
2018-04-13T17:52:27.620Z,69.63
2018-04-13T17:54:56.530Z,69.35
2018-04-13T17:57:24.583Z,70.75
2018-04-13T17:59:52.595Z,71.26
2018-04-13T18:02:20.645Z,70.78
2018-04-13T18:04:48.651Z,72.44
2018-04-13T18:07:16.842Z,73.58
2018-04-13T18:09:44.862Z,74.72
2018-04-13T18:12:14.019Z,73.39
2018-04-13T18:14:42.016Z,72.91
2018-04-13T18:17:10.107Z,73.89
2018-04-13T18:19:38.153Z,73.49
2018-04-13T18:22:06.415Z,74.03
2018-04-13T18:24:34.633Z,74.04
2018-04-13T18:27:02.668Z,73.39
2018-04-13T18:29:30.672Z,73.88
2018-04-13T18:31:58.683Z,73.30
2018-04-13T18:34:26.714Z,72.48
2018-04-13T18:36:54.803Z,72.49
2018-04-13T18:39:22.873Z,73.03
2018-04-13T18:41:50.840Z,73.37
2018-04-13T18:44:18.878Z,73.32
2018-04-13T18:46:46.898Z,74.34
2018-04-13T18:49:14.953Z,74.19
2018-04-13T18:51:42.972Z,75.30
2018-04-13T18:54:11.211Z,75.00
2018-04-13T18:56:39.370Z,74.94
2018-04-13T18:59:07.697Z,75.40
2018-04-13T19:01:35.680Z,75.83
2018-04-13T19:04:07.851Z,75.92
2018-04-13T19:06:35.860Z,75.78
2018-04-13T19:09:03.894Z,76.18
2018-04-13T19:11:32.159Z,76.75
2018-04-13T19:14:00.431Z,75.79
2018-04-13T19:16:28.513Z,76.50
2018-04-13T19:18:57.156Z,77.22
2018-04-13T19:21:25.170Z,77.81
2018-04-13T19:23:53.200Z,77.98
2018-04-13T19:26:21.261Z,76.70
2018-04-13T19:28:49.544Z,77.49
2018-04-13T19:31:17.751Z,77.38
2018-04-13T19:33:45.794Z,77.70
2018-04-13T19:36:13.797Z,78.31
2018-04-13T19:38:41.821Z,79.00
2018-04-13T19:41:09.823Z,79.24
2018-04-13T19:43:37.840Z,79.75
2018-04-13T19:46:05.872Z,80.23
2018-04-13T19:48:34.184Z,80.17
2018-04-13T19:51:02.215Z,79.72
2018-04-13T19:53:30.268Z,79.84
2018-04-13T19:55:59.020Z,79.50
2018-04-13T19:58:27.041Z,79.85
2018-04-13T20:00:55.059Z,80.68
2018-04-13T20:03:23.063Z,81.26
2018-04-13T20:05:51.091Z,81.51
2018-04-13T20:08:19.110Z,81.21
2018-04-13T20:10:47.134Z,80.69
2018-04-13T20:13:15.141Z,81.10
2018-04-13T20:15:43.150Z,81.50
2018-04-13T20:18:11.170Z,81.96
2018-04-13T20:20:39.372Z,81.07
2018-04-13T20:23:07.761Z,81.67
2018-04-13T20:25:35.773Z,80.77
2018-04-13T20:28:03.954Z,82.08
2018-04-13T20:30:32.039Z,81.94
2018-04-13T20:33:00.066Z,81.83
2018-04-13T20:35:28.070Z,81.70
2018-04-13T20:37:56.089Z,81.87
2018-04-13T20:40:24.119Z,82.22
2018-04-13T20:42:52.144Z,82.12
2018-04-13T20:45:20.190Z,82.64
2018-04-13T20:47:48.217Z,83.27
2018-04-13T20:50:16.221Z,83.37
2018-04-13T20:52:44.264Z,83.75
2018-04-13T20:55:12.279Z,82.99
2018-04-13T20:57:40.787Z,82.64
2018-04-13T21:00:09.081Z,83.04
2018-04-13T21:02:37.106Z,82.68
2018-04-13T21:05:06.540Z,82.69
2018-04-13T21:07:34.795Z,83.32
2018-04-13T21:10:05.994Z,83.50
2018-04-13T21:12:34.890Z,83.11
2018-04-13T21:15:06.718Z,83.47
2018-04-13T21:17:34.858Z,84.02
2018-04-13T21:20:05.798Z,82.74
2018-04-13T21:22:34.414Z,83.15
2018-04-13T21:25:09.279Z,82.95
2018-04-13T21:27:37.452Z,82.67
2018-04-13T21:30:05.767Z,83.09
2018-04-13T21:32:34.250Z,82.88
2018-04-13T21:35:06.087Z,82.86
2018-04-13T21:37:34.093Z,83.07
2018-04-13T21:40:08.857Z,83.37
2018-04-13T21:42:36.875Z,83.38
2018-04-13T21:45:05.798Z,82.36
2018-04-13T21:47:33.819Z,82.56
2018-04-13T21:50:05.903Z,82.04
2018-04-13T21:52:33.943Z,82.05
2018-04-13T21:55:07.103Z,82.51
2018-04-13T21:57:35.172Z,82.12
2018-04-13T22:00:07.303Z,82.54
2018-04-13T22:02:35.583Z,82.80
2018-04-13T22:05:07.019Z,83.30
2018-04-13T22:07:35.142Z,82.95
2018-04-13T22:10:07.328Z,83.30
2018-04-13T22:12:47.051Z,82.77
2018-04-13T22:15:15.051Z,82.89
2018-04-13T22:17:43.089Z,83.34
2018-04-13T22:20:11.559Z,83.62
2018-04-13T22:22:39.595Z,83.24
2018-04-13T22:25:07.594Z,84.08
2018-04-13T22:27:35.620Z,84.12
2018-04-13T22:30:07.076Z,83.94
2018-04-13T22:32:35.098Z,84.00
2018-04-13T22:35:06.807Z,84.28
2018-04-13T22:37:34.843Z,85.03
2018-04-13T22:40:06.187Z,85.05
2018-04-13T22:42:34.203Z,85.02
2018-04-13T22:45:05.233Z,85.07
2018-04-13T22:47:33.247Z,84.68
2018-04-13T22:50:04.534Z,84.89
2018-04-13T22:52:32.535Z,84.98
2018-04-13T22:55:04.430Z,85.21
2018-04-13T22:57:32.403Z,85.20
2018-04-13T23:00:00.417Z,85.23
2018-04-13T23:02:31.923Z,85.32
2018-04-13T23:04:59.952Z,85.37
2018-04-13T23:07:33.811Z,85.58
2018-04-13T23:10:08.368Z,85.42
2018-04-13T23:12:36.360Z,86.21
2018-04-13T23:15:07.575Z,85.46
2018-04-13T23:17:35.576Z,85.26
2018-04-13T23:20:07.043Z,85.66
2018-04-13T23:22:37.960Z,85.90
2018-04-13T23:25:06.262Z,86.00
2018-04-13T23:27:34.249Z,86.62
2018-04-13T23:30:05.278Z,86.57
2018-04-13T23:32:33.275Z,86.25
2018-04-13T23:35:07.898Z,86.50
2018-04-13T23:37:35.911Z,86.46
2018-04-13T23:40:07.617Z,87.15
2018-04-13T23:42:35.579Z,87.46
2018-04-13T23:45:06.980Z,87.80
2018-04-13T23:47:35.054Z,88.32
2018-04-13T23:50:05.898Z,88.57
2018-04-13T23:52:33.919Z,88.73
2018-04-13T23:55:08.410Z,89.00
2018-04-13T23:57:40.487Z,88.79
